AirNav   Air Wisconsin pilot careers
 
 551 users online  

99N Bamberg County Airport
Bamberg, South Carolina, USA

GOING TO BAMBERG?


FAA INFORMATION EFFECTIVE 16 AUGUST 2018

Location

FAA Identifier: 99N
Lat/Long: 33-18-16.3000N / 081-06-30.3000W
33-18.271667N / 081-06.505000W
33.3045278 / -81.1084167
(estimated)
Elevation: 231 ft. / 70 m (estimated)
Variation: 07W (2010)
From city: 5 miles W of BAMBERG, SC
Time zone: UTC -4 (UTC -5 during Standard Time)
Zip code: 29042

Airport Operations

Airport use: Open to the public
Activation date: 10/1982
Control tower: no
ARTCC: JACKSONVILLE CENTER
FSS: ANDERSON FLIGHT SERVICE STATION
NOTAMs facility: AND (NOTAM-D service available)
Attendance: UNATNDD
Wind indicator: yes
Segmented circle: yes
Lights: MIRL RY 05/23, PAPI RY 05 AND PAPI RY 23 OPER DUSK-2200. AFTER 2200 ACTVT MIRL RY 05-23, PAPI RY 05 AND PAPI RY 23-CTAF.
Beacon: white-green (lighted land airport)
Operates sunset to sunrise.

Airport Communications

CTAF/UNICOM: 122.8
COLUMBIA APPROACH: 124.15 [SUN-FRI 0530-0030 SAT 0530-0000]
COLUMBIA DEPARTURE: 124.15 [SUN-FRI 0530-0030 SAT 0530-0000]
WX AWOS-3 at BNL (14 nm W): 119.775 (803-259-4536)
WX ASOS at OGB (15 nm NE): 118.525 (803-536-3901)
  • APCH/DEP SVC PROVIDED BY COLUMBIA APCH CTL ON FREQS 124.15/338.2

Nearby radio navigation aids

VOR radial/distance  VOR name  Freq  Var
ALDr029/(19.8)ALLENDALE VOR116.7001W
CAEr187/33.3COLUMBIA VORTAC114.7002W
VANr259/34.6VANCE VORTAC110.4006W

 
NDB name  Hdg/Dist  Freq  Var  ID
AIKEN132/35.334706WAIK .- .. -.-

Airport Services

Parking: tiedowns
Airframe service: NONE
Powerplant service: NONE
Bottled oxygen: NONE
Bulk oxygen: NONE

Runway Information

Runway 5/23

Dimensions: 3603 x 60 ft. / 1098 x 18 m
Surface: asphalt, in good condition
Weight bearing capacity: 
Single wheel: 30.0
Double wheel: 60.0
Runway edge lights: medium intensity
RUNWAY 5  RUNWAY 23
Latitude: 33-18.056975N33-18.486865N
Longitude: 081-06.748578W081-06.260402W
Elevation: 208.3 ft.230.7 ft.
Gradient: 0.6% UP
Traffic pattern: leftleft
Runway heading: 051 magnetic, 044 true231 magnetic, 224 true
Markings: nonprecision, in good conditionnonprecision, in good condition
Visual slope indicator: 2-light PAPI on left (3.00 degrees glide path)2-light PAPI on left (3.00 degrees glide path)
Touchdown point: yes, no lightsyes, no lights
Obstructions: 65 ft. tree, 558 ft. from runway, 293 ft. left of centerline, 5:1 slope to clear58 ft. tree, 635 ft. from runway, 309 ft. right of centerline, 7:1 slope to clear

Airport Ownership and Management from official FAA records

Ownership: Publicly-owned
Owner: BAMBERG COUNTY
PO BOX 149
BAMBERG, SC 29003
Phone 803-245-5191
Manager: MR. JOEY PRESTON
PO BOX 149
BAMBERG, SC 29003
Phone 803-245-5191
COUNTY ADMINISTRATOR.

Airport Operational Statistics

Aircraft based on the field: 7
Single engine airplanes: 7
    
Aircraft operations: avg 83/month *
69% transient general aviation
31% local general aviation
* for 12-month period ending 05 June 2018

Instrument Procedures

NOTE: All procedures below are presented as PDF files. If you need a reader for these files, you should download the free Adobe Reader.

NOT FOR NAVIGATION. Please procure official charts for flight.
FAA instrument procedures published for use from 16 August 2018 at 0901Z to 13 September 2018 at 0900Z.

 
IAPs - Instrument Approach Procedures
RNAV (GPS) RWY 05   download (179KB)
RNAV (GPS) RWY 23   download (167KB)
NOTE: Special Take-Off Minimums/Departure Procedures apply   download (141KB)

Other nearby airports with instrument procedures:

KBNL - Barnwell Regional Airport (14 nm W)
KOGB - Orangeburg Municipal Airport (15 nm NE)
KXNO - North Air Force Auxiliary Field (18 nm N)
KAQX - Allendale County Airport (20 nm SW)
6J0 - Lexington County Airport at Pelion (30 nm N)
 
Loc | Ops | Rwys | IFR | FBO | Links
Com | Nav | Svcs | Stats | Notes


 
Area around 99N (Bamberg County Airport)
 
Road maps at: MapQuest Bing Google
 
Aerial photo
WARNING: Photo may not be current or correct
Aerial photo of 99N (Bamberg County Airport)
Do you have a better or more recent aerial photo of Bamberg County Airport that you would like to share? If so, please send us your photo.

 
Sectional chart

 
Airport distance calculator
Flying to Bamberg County Airport? Find the distance to fly.

From to 99N

Sunrise and sunset
Times for 20-Aug-2018
 Local
(UTC-4)
 Zulu
(UTC)
Morning civil twilight06:2610:26
Sunrise06:5110:51
Sunset20:0400:04
Evening civil twilight20:3000:30

Current date and time
Zulu (UTC)  20-Aug-2018 05:23:45
Local (UTC-4)  20-Aug-2018 01:23:45
 
METAR
KBNL 
14nm W 
200455Z AUTO 00000KT 10SM FEW100 25/22 A3004 RMK AO2
KOGB 
16nm NE 
200453Z AUTO 20007KT 10SM CLR 24/21 A3003 RMK AO2 SLP167 T02440211 403110228
KXNO 
18nm N 
200456Z AUTO 20004KT 10SM BKN170 25/20 A3003 RMK AO2 SLP168 T02500198 403140226 $
KAQX 
20nm SW 
200455Z AUTO 00000KT 10SM CLR 24/22 A3004 RMK AO2
TAF
KOGB 
16nm NE 
200234Z 2003/2024 20006KT P6SM BKN120 FM200600 VRB03KT P6SM SCT120 TEMPO 2008/2012 5SM BR SCT006 FM201400 24008KT P6SM SCT015 FM201800 23008KT P6SM VCTS SCT035CB BKN050
NOTAMs
Click for the latest NOTAMs
NOTAMs are issued by the DoD/FAA and will open in a separate window not controlled by AirNav.

 

 
 

Would you like to see your business listed on this page?

 If your business provides an interesting product or service to pilots, flight crews, aircraft, or users of the Bamberg County Airport, you should consider listing it here.  To start the listing process, click on the button below
 
Add a business
 

Other Pages about Bamberg County Airport

Update a link
 
Copyright © AirNav, LLC. All rights reserved. Privacy Policy  Contact